sensor_id;sensor_type;location;lat;lon;timestamp;temperature;humidity
54788;DHT22;59598;48.112;16.280;2022-09-13T00:00:34;12.90;99.90
54788;DHT22;59598;48.112;16.280;2022-09-13T00:03:07;12.80;99.90
54788;DHT22;59598;48.112;16.280;2022-09-13T00:05:42;12.70;99.90
54788;DHT22;59598;48.112;16.280;2022-09-13T00:08:14;12.60;99.90
54788;DHT22;59598;48.112;16.280;2022-09-13T00:10:49;12.60;99.90
54788;DHT22;59598;48.112;16.280;2022-09-13T00:13:20;12.50;99.90
54788;DHT22;59598;48.112;16.280;2022-09-13T00:15:54;12.40;99.90
54788;DHT22;59598;48.112;16.280;2022-09-13T00:18:26;12.30;99.90
54788;DHT22;59598;48.112;16.280;2022-09-13T00:21:09;12.20;99.90
54788;DHT22;59598;48.112;16.280;2022-09-13T00:23:51;12.10;99.90
54788;DHT22;59598;48.112;16.280;2022-09-13T00:26:31;12.10;99.90
54788;DHT22;59598;48.112;16.280;2022-09-13T00:29:02;12.10;99.90
54788;DHT22;59598;48.112;16.280;2022-09-13T00:31:35;12.00;99.90
54788;DHT22;59598;48.112;16.280;2022-09-13T00:34:08;12.10;99.90
54788;DHT22;59598;48.112;16.280;2022-09-13T00:36:43;12.00;99.90
54788;DHT22;59598;48.112;16.280;2022-09-13T00:39:15;11.90;99.90
54788;DHT22;59598;48.112;16.280;2022-09-13T00:41:53;11.80;99.90
54788;DHT22;59598;48.112;16.280;2022-09-13T00:53:13;11.40;99.90
54788;DHT22;59598;48.112;16.280;2022-09-13T00:56:09;11.50;99.90
54788;DHT22;59598;48.112;16.280;2022-09-13T00:59:05;11.50;99.90
54788;DHT22;59598;48.112;16.280;2022-09-13T01:01:47;11.40;99.90
54788;DHT22;59598;48.112;16.280;2022-09-13T01:04:24;11.30;99.90
54788;DHT22;59598;48.112;16.280;2022-09-13T01:07:01;11.30;99.90
54788;DHT22;59598;48.112;16.280;2022-09-13T01:09:40;11.20;99.90
54788;DHT22;59598;48.112;16.280;2022-09-13T01:15:06;11.10;99.90
54788;DHT22;59598;48.112;16.280;2022-09-13T01:17:42;11.10;99.90
54788;DHT22;59598;48.112;16.280;2022-09-13T01:20:16;11.10;99.90
54788;DHT22;59598;48.112;16.280;2022-09-13T01:29:44;11.10;99.90
54788;DHT22;59598;48.112;16.280;2022-09-13T01:39:14;11.00;99.90
54788;DHT22;59598;48.112;16.280;2022-09-13T01:45:26;10.80;99.90
54788;DHT22;59598;48.112;16.280;2022-09-13T01:48:21;10.70;99.90
54788;DHT22;59598;48.112;16.280;2022-09-13T01:51:53;10.70;99.90
54788;DHT22;59598;48.112;16.280;2022-09-13T01:54:39;10.70;99.90
54788;DHT22;59598;48.112;16.280;2022-09-13T01:57:27;10.70;99.90
54788;DHT22;59598;48.112;16.280;2022-09-13T02:00:17;10.60;99.90
54788;DHT22;59598;48.112;16.280;2022-09-13T02:03:03;10.60;99.90
54788;DHT22;59598;48.112;16.280;2022-09-13T02:06:21;10.50;99.90
54788;DHT22;59598;48.112;16.280;2022-09-13T02:09:04;10.50;99.90
54788;DHT22;59598;48.112;16.280;2022-09-13T02:11:41;10.50;99.90
54788;DHT22;59598;48.112;16.280;2022-09-13T02:14:26;10.50;99.90
54788;DHT22;59598;48.112;16.280;2022-09-13T02:17:06;10.50;99.90
54788;DHT22;59598;48.112;16.280;2022-09-13T02:19:46;10.40;99.90
54788;DHT22;59598;48.112;16.280;2022-09-13T02:22:45;10.30;99.90
54788;DHT22;59598;48.112;16.280;2022-09-13T02:25:23;10.30;99.90
54788;DHT22;59598;48.112;16.280;2022-09-13T02:28:06;10.30;99.90
54788;DHT22;59598;48.112;16.280;2022-09-13T02:30:45;10.30;99.90
54788;DHT22;59598;48.112;16.280;2022-09-13T02:33:31;10.30;99.90
54788;DHT22;59598;48.112;16.280;2022-09-13T02:36:12;10.20;99.90
54788;DHT22;59598;48.112;16.280;2022-09-13T02:38:54;10.20;99.90
54788;DHT22;59598;48.112;16.280;2022-09-13T02:45:00;10.30;99.90
54788;DHT22;59598;48.112;16.280;2022-09-13T02:59:04;10.30;99.90
54788;DHT22;59598;48.112;16.280;2022-09-13T03:01:40;10.30;99.90
54788;DHT22;59598;48.112;16.280;2022-09-13T03:04:15;10.20;99.90
54788;DHT22;59598;48.112;16.280;2022-09-13T03:06:53;10.20;99.90
54788;DHT22;59598;48.112;16.280;2022-09-13T03:09:34;10.30;99.90
54788;DHT22;59598;48.112;16.280;2022-09-13T03:15:56;10.20;99.90
54788;DHT22;59598;48.112;16.280;2022-09-13T03:30:06;10.30;99.90
54788;DHT22;59598;48.112;16.280;2022-09-13T03:35:44;10.30;99.90
54788;DHT22;59598;48.112;16.280;2022-09-13T03:39:40;10.10;99.90
54788;DHT22;59598;48.112;16.280;2022-09-13T03:42:01;10.10;99.90
54788;DHT22;59598;48.112;16.280;2022-09-13T03:44:38;10.00;99.90
54788;DHT22;59598;48.112;16.280;2022-09-13T03:47:15;9.90;99.90
54788;DHT22;59598;48.112;16.280;2022-09-13T03:49:47;9.90;99.90
54788;DHT22;59598;48.112;16.280;2022-09-13T03:52:26;9.80;99.90
54788;DHT22;59598;48.112;16.280;2022-09-13T03:55:00;9.70;99.90
54788;DHT22;59598;48.112;16.280;2022-09-13T03:57:32;9.70;99.90
54788;DHT22;59598;48.112;16.280;2022-09-13T04:00:11;9.70;99.90
54788;DHT22;59598;48.112;16.280;2022-09-13T04:02:45;9.70;99.90
54788;DHT22;59598;48.112;16.280;2022-09-13T04:05:21;9.70;99.90
54788;DHT22;59598;48.112;16.280;2022-09-13T04:07:52;9.70;99.90
54788;DHT22;59598;48.112;16.280;2022-09-13T04:10:27;9.70;99.90
54788;DHT22;59598;48.112;16.280;2022-09-13T04:13:02;9.70;99.90
54788;DHT22;59598;48.112;16.280;2022-09-13T04:15:34;9.70;99.90
54788;DHT22;59598;48.112;16.280;2022-09-13T04:18:08;9.70;99.90
54788;DHT22;59598;48.112;16.280;2022-09-13T04:20:44;9.70;99.90
54788;DHT22;59598;48.112;16.280;2022-09-13T04:23:27;9.60;99.90
54788;DHT22;59598;48.112;16.280;2022-09-13T04:26:04;9.60;99.90
54788;DHT22;59598;48.112;16.280;2022-09-13T04:28:36;9.60;99.90
54788;DHT22;59598;48.112;16.280;2022-09-13T04:31:12;9.60;99.90
54788;DHT22;59598;48.112;16.280;2022-09-13T04:33:48;9.60;99.90
54788;DHT22;59598;48.112;16.280;2022-09-13T04:36:22;9.60;99.90
54788;DHT22;59598;48.112;16.280;2022-09-13T04:39:01;9.60;99.90
54788;DHT22;59598;48.112;16.280;2022-09-13T04:41:36;9.60;99.90
54788;DHT22;59598;48.112;16.280;2022-09-13T04:44:07;9.60;99.90
54788;DHT22;59598;48.112;16.280;2022-09-13T04:46:39;9.60;99.90
54788;DHT22;59598;48.112;16.280;2022-09-13T04:49:14;9.60;99.90
54788;DHT22;59598;48.112;16.280;2022-09-13T04:51:48;9.60;99.90
54788;DHT22;59598;48.112;16.280;2022-09-13T04:54:24;9.70;99.90
54788;DHT22;59598;48.112;16.280;2022-09-13T04:56:59;9.70;99.90
54788;DHT22;59598;48.112;16.280;2022-09-13T04:59:31;9.80;99.90
54788;DHT22;59598;48.112;16.280;2022-09-13T05:02:06;10.00;99.90
54788;DHT22;59598;48.112;16.280;2022-09-13T05:04:40;10.10;99.90
54788;DHT22;59598;48.112;16.280;2022-09-13T05:07:19;10.30;99.90
54788;DHT22;59598;48.112;16.280;2022-09-13T05:09:53;10.50;99.90
54788;DHT22;59598;48.112;16.280;2022-09-13T05:12:27;10.60;99.90
54788;DHT22;59598;48.112;16.280;2022-09-13T05:14:59;10.70;99.90
54788;DHT22;59598;48.112;16.280;2022-09-13T05:17:30;10.90;99.90
54788;DHT22;59598;48.112;16.280;2022-09-13T05:20:02;10.90;99.90
54788;DHT22;59598;48.112;16.280;2022-09-13T05:22:36;11.10;99.90
54788;DHT22;59598;48.112;16.280;2022-09-13T05:25:08;11.30;99.90
54788;DHT22;59598;48.112;16.280;2022-09-13T05:27:44;11.40;99.90
54788;DHT22;59598;48.112;16.280;2022-09-13T05:30:19;11.60;99.90
54788;DHT22;59598;48.112;16.280;2022-09-13T05:32:57;11.80;99.90
54788;DHT22;59598;48.112;16.280;2022-09-13T05:35:31;12.00;99.90
54788;DHT22;59598;48.112;16.280;2022-09-13T05:38:05;12.20;99.90
54788;DHT22;59598;48.112;16.280;2022-09-13T05:40:39;12.40;99.90
54788;DHT22;59598;48.112;16.280;2022-09-13T05:43:13;12.50;99.90
54788;DHT22;59598;48.112;16.280;2022-09-13T05:45:47;12.70;99.90
54788;DHT22;59598;48.112;16.280;2022-09-13T05:48:29;12.90;99.90
54788;DHT22;59598;48.112;16.280;2022-09-13T05:51:16;13.00;99.90
54788;DHT22;59598;48.112;16.280;2022-09-13T05:53:50;13.30;99.90
54788;DHT22;59598;48.112;16.280;2022-09-13T05:56:25;13.50;99.90
54788;DHT22;59598;48.112;16.280;2022-09-13T05:58:58;13.60;99.90
54788;DHT22;59598;48.112;16.280;2022-09-13T06:01:34;13.80;99.90
54788;DHT22;59598;48.112;16.280;2022-09-13T06:04:06;14.10;99.90
54788;DHT22;59598;48.112;16.280;2022-09-13T06:06:38;14.50;99.90
54788;DHT22;59598;48.112;16.280;2022-09-13T06:09:11;15.20;99.90
54788;DHT22;59598;48.112;16.280;2022-09-13T06:11:49;15.60;99.90
54788;DHT22;59598;48.112;16.280;2022-09-13T06:14:23;15.90;99.90
54788;DHT22;59598;48.112;16.280;2022-09-13T06:17:00;16.10;99.90
54788;DHT22;59598;48.112;16.280;2022-09-13T06:19:33;16.10;99.90
54788;DHT22;59598;48.112;16.280;2022-09-13T06:22:07;16.40;99.90
54788;DHT22;59598;48.112;16.280;2022-09-13T06:24:42;16.90;99.90
54788;DHT22;59598;48.112;16.280;2022-09-13T06:27:18;17.20;99.90
54788;DHT22;59598;48.112;16.280;2022-09-13T06:29:51;17.50;99.90
54788;DHT22;59598;48.112;16.280;2022-09-13T06:32:30;17.60;99.90
54788;DHT22;59598;48.112;16.280;2022-09-13T06:35:05;17.80;99.90
54788;DHT22;59598;48.112;16.280;2022-09-13T06:37:40;18.00;99.90
54788;DHT22;59598;48.112;16.280;2022-09-13T06:40:14;18.20;99.90
54788;DHT22;59598;48.112;16.280;2022-09-13T06:42:47;18.30;99.90
54788;DHT22;59598;48.112;16.280;2022-09-13T06:45:21;18.30;99.90
54788;DHT22;59598;48.112;16.280;2022-09-13T06:47:54;18.40;99.90
54788;DHT22;59598;48.112;16.280;2022-09-13T06:50:26;18.60;99.90
54788;DHT22;59598;48.112;16.280;2022-09-13T06:52:58;18.60;99.90
54788;DHT22;59598;48.112;16.280;2022-09-13T06:55:29;18.80;99.90
54788;DHT22;59598;48.112;16.280;2022-09-13T06:58:03;19.00;99.90
54788;DHT22;59598;48.112;16.280;2022-09-13T07:00:35;19.20;99.90
54788;DHT22;59598;48.112;16.280;2022-09-13T07:03:06;19.30;99.90
54788;DHT22;59598;48.112;16.280;2022-09-13T07:05:38;19.40;99.90
54788;DHT22;59598;48.112;16.280;2022-09-13T07:08:13;19.40;99.90
54788;DHT22;59598;48.112;16.280;2022-09-13T07:10:50;19.10;99.90
54788;DHT22;59598;48.112;16.280;2022-09-13T07:13:26;19.20;99.90
54788;DHT22;59598;48.112;16.280;2022-09-13T07:16:01;19.40;99.90
54788;DHT22;59598;48.112;16.280;2022-09-13T07:18:34;19.30;99.90
54788;DHT22;59598;48.112;16.280;2022-09-13T07:21:09;19.40;99.90
54788;DHT22;59598;48.112;16.280;2022-09-13T07:23:41;19.30;99.90
54788;DHT22;59598;48.112;16.280;2022-09-13T07:26:15;19.60;99.90
54788;DHT22;59598;48.112;16.280;2022-09-13T07:28:51;19.70;99.90
54788;DHT22;59598;48.112;16.280;2022-09-13T07:31:30;19.90;99.90
54788;DHT22;59598;48.112;16.280;2022-09-13T07:34:13;20.10;99.90
54788;DHT22;59598;48.112;16.280;2022-09-13T07:36:47;20.50;99.90
54788;DHT22;59598;48.112;16.280;2022-09-13T07:39:20;20.50;99.90
54788;DHT22;59598;48.112;16.280;2022-09-13T07:41:52;19.90;99.90
54788;DHT22;59598;48.112;16.280;2022-09-13T07:44:26;19.60;99.90
54788;DHT22;59598;48.112;16.280;2022-09-13T07:47:03;19.60;99.90
54788;DHT22;59598;48.112;16.280;2022-09-13T07:49:36;19.70;99.90
54788;DHT22;59598;48.112;16.280;2022-09-13T07:52:11;19.90;99.90
54788;DHT22;59598;48.112;16.280;2022-09-13T07:54:43;20.10;99.90
54788;DHT22;59598;48.112;16.280;2022-09-13T07:57:18;20.20;99.90
54788;DHT22;59598;48.112;16.280;2022-09-13T07:59:49;20.60;99.90
54788;DHT22;59598;48.112;16.280;2022-09-13T08:02:23;21.20;99.90
54788;DHT22;59598;48.112;16.280;2022-09-13T08:04:58;21.10;99.90
54788;DHT22;59598;48.112;16.280;2022-09-13T08:07:29;21.20;99.90
54788;DHT22;59598;48.112;16.280;2022-09-13T08:10:08;21.50;99.90
54788;DHT22;59598;48.112;16.280;2022-09-13T08:12:42;21.80;99.90
54788;DHT22;59598;48.112;16.280;2022-09-13T08:15:18;21.90;99.90
54788;DHT22;59598;48.112;16.280;2022-09-13T08:17:50;22.20;99.90
54788;DHT22;59598;48.112;16.280;2022-09-13T08:20:24;22.30;99.90
54788;DHT22;59598;48.112;16.280;2022-09-13T08:22:57;22.60;99.90
54788;DHT22;59598;48.112;16.280;2022-09-13T08:25:32;22.60;99.90
54788;DHT22;59598;48.112;16.280;2022-09-13T08:28:16;22.90;99.90
54788;DHT22;59598;48.112;16.280;2022-09-13T08:30:51;23.20;99.90
54788;DHT22;59598;48.112;16.280;2022-09-13T08:33:23;22.80;99.90
54788;DHT22;59598;48.112;16.280;2022-09-13T08:35:56;22.70;99.90
54788;DHT22;59598;48.112;16.280;2022-09-13T08:38:28;22.60;99.90
54788;DHT22;59598;48.112;16.280;2022-09-13T08:41:03;22.60;99.90
54788;DHT22;59598;48.112;16.280;2022-09-13T08:44:09;22.70;99.90
54788;DHT22;59598;48.112;16.280;2022-09-13T08:50:18;22.60;99.90
54788;DHT22;59598;48.112;16.280;2022-09-13T08:56:17;23.10;99.90
54788;DHT22;59598;48.112;16.280;2022-09-13T09:05:49;24.20;99.90
54788;DHT22;59598;48.112;16.280;2022-09-13T09:08:30;23.80;99.90
54788;DHT22;59598;48.112;16.280;2022-09-13T09:11:36;24.10;99.90
54788;DHT22;59598;48.112;16.280;2022-09-13T09:14:27;24.60;99.90
54788;DHT22;59598;48.112;16.280;2022-09-13T09:17:06;25.20;99.90
54788;DHT22;59598;48.112;16.280;2022-09-13T09:19:59;25.30;99.90
54788;DHT22;59598;48.112;16.280;2022-09-13T09:22:36;25.40;99.90
54788;DHT22;59598;48.112;16.280;2022-09-13T09:25:12;25.60;99.90
54788;DHT22;59598;48.112;16.280;2022-09-13T09:27:44;25.70;99.90
54788;DHT22;59598;48.112;16.280;2022-09-13T09:30:18;25.80;99.90
54788;DHT22;59598;48.112;16.280;2022-09-13T09:33:01;25.80;99.90
54788;DHT22;59598;48.112;16.280;2022-09-13T09:36:09;25.70;99.90
54788;DHT22;59598;48.112;16.280;2022-09-13T09:38:47;25.80;99.90
54788;DHT22;59598;48.112;16.280;2022-09-13T09:41:29;26.00;99.90
54788;DHT22;59598;48.112;16.280;2022-09-13T09:44:26;26.20;99.90
54788;DHT22;59598;48.112;16.280;2022-09-13T09:47:15;25.40;99.90
54788;DHT22;59598;48.112;16.280;2022-09-13T09:53:13;25.80;99.90
54788;DHT22;59598;48.112;16.280;2022-09-13T09:55:54;26.40;99.90
54788;DHT22;59598;48.112;16.280;2022-09-13T09:58:39;26.80;99.90
54788;DHT22;59598;48.112;16.280;2022-09-13T10:01:26;27.30;99.90
54788;DHT22;59598;48.112;16.280;2022-09-13T10:04:18;27.40;99.90
54788;DHT22;59598;48.112;16.280;2022-09-13T10:07:09;27.10;99.90
54788;DHT22;59598;48.112;16.280;2022-09-13T10:13:18;26.60;99.90
54788;DHT22;59598;48.112;16.280;2022-09-13T10:16:04;26.60;99.90
54788;DHT22;59598;48.112;16.280;2022-09-13T10:18:40;27.30;99.90
54788;DHT22;59598;48.112;16.280;2022-09-13T10:23:49;28.10;99.90
54788;DHT22;59598;48.112;16.280;2022-09-13T10:26:25;29.10;99.90
54788;DHT22;59598;48.112;16.280;2022-09-13T10:31:44;27.30;99.90
54788;DHT22;59598;48.112;16.280;2022-09-13T10:34:35;28.70;99.90
54788;DHT22;59598;48.112;16.280;2022-09-13T10:37:18;29.90;99.90
54788;DHT22;59598;48.112;16.280;2022-09-13T10:40:04;31.30;99.90
54788;DHT22;59598;48.112;16.280;2022-09-13T10:42:39;32.20;99.90
54788;DHT22;59598;48.112;16.280;2022-09-13T10:45:22;33.10;99.90
54788;DHT22;59598;48.112;16.280;2022-09-13T10:51:04;33.00;99.90
54788;DHT22;59598;48.112;16.280;2022-09-13T10:54:15;33.50;99.90
54788;DHT22;59598;48.112;16.280;2022-09-13T10:56:52;32.60;99.90
54788;DHT22;59598;48.112;16.280;2022-09-13T10:59:24;32.70;99.90
54788;DHT22;59598;48.112;16.280;2022-09-13T11:05:25;32.90;99.90
54788;DHT22;59598;48.112;16.280;2022-09-13T11:17:33;34.80;99.90
54788;DHT22;59598;48.112;16.280;2022-09-13T11:20:49;34.40;99.90
54788;DHT22;59598;48.112;16.280;2022-09-13T11:33:06;34.00;99.90
54788;DHT22;59598;48.112;16.280;2022-09-13T11:45:17;34.10;99.90
54788;DHT22;59598;48.112;16.280;2022-09-13T11:56:54;35.70;99.90
54788;DHT22;59598;48.112;16.280;2022-09-13T11:59:46;36.10;99.90
54788;DHT22;59598;48.112;16.280;2022-09-13T12:05:44;32.70;99.90
54788;DHT22;59598;48.112;16.280;2022-09-13T12:08:31;34.10;99.90
54788;DHT22;59598;48.112;16.280;2022-09-13T12:11:22;35.50;99.90
54788;DHT22;59598;48.112;16.280;2022-09-13T12:14:02;35.00;99.90
54788;DHT22;59598;48.112;16.280;2022-09-13T12:16:42;35.90;99.90
54788;DHT22;59598;48.112;16.280;2022-09-13T12:19:41;34.60;99.90
54788;DHT22;59598;48.112;16.280;2022-09-13T12:22:16;33.20;99.90
54788;DHT22;59598;48.112;16.280;2022-09-13T12:24:56;33.50;99.90
54788;DHT22;59598;48.112;16.280;2022-09-13T12:28:03;33.60;99.90
54788;DHT22;59598;48.112;16.280;2022-09-13T12:30:51;33.80;99.90
54788;DHT22;59598;48.112;16.280;2022-09-13T12:33:29;32.70;99.90
54788;DHT22;59598;48.112;16.280;2022-09-13T12:39:20;32.80;99.90
54788;DHT22;59598;48.112;16.280;2022-09-13T12:48:31;32.90;99.90
54788;DHT22;59598;48.112;16.280;2022-09-13T12:51:07;33.40;99.90
54788;DHT22;59598;48.112;16.280;2022-09-13T12:53:56;33.80;99.90
54788;DHT22;59598;48.112;16.280;2022-09-13T13:00:29;32.40;99.90
54788;DHT22;59598;48.112;16.280;2022-09-13T13:05:47;31.70;99.90
54788;DHT22;59598;48.112;16.280;2022-09-13T13:08:26;31.20;99.90
54788;DHT22;59598;48.112;16.280;2022-09-13T13:11:08;30.50;99.90
54788;DHT22;59598;48.112;16.280;2022-09-13T13:13:52;30.30;99.90
54788;DHT22;59598;48.112;16.280;2022-09-13T13:16:39;31.30;99.90
54788;DHT22;59598;48.112;16.280;2022-09-13T13:19:30;33.20;99.90
54788;DHT22;59598;48.112;16.280;2022-09-13T13:28:50;35.70;99.90
54788;DHT22;59598;48.112;16.280;2022-09-13T13:34:42;35.50;99.90
54788;DHT22;59598;48.112;16.280;2022-09-13T13:43:38;37.30;99.90
54788;DHT22;59598;48.112;16.280;2022-09-13T13:48:46;35.50;99.50
54788;DHT22;59598;48.112;16.280;2022-09-13T13:51:22;33.40;99.90
54788;DHT22;59598;48.112;16.280;2022-09-13T13:54:04;34.70;99.90
54788;DHT22;59598;48.112;16.280;2022-09-13T13:57:00;35.20;99.50
54788;DHT22;59598;48.112;16.280;2022-09-13T13:59:35;34.70;99.90
54788;DHT22;59598;48.112;16.280;2022-09-13T14:02:12;34.20;99.90
54788;DHT22;59598;48.112;16.280;2022-09-13T14:07:49;34.90;99.80
54788;DHT22;59598;48.112;16.280;2022-09-13T14:11:15;34.20;99.50
54788;DHT22;59598;48.112;16.280;2022-09-13T14:20:17;32.60;99.90
54788;DHT22;59598;48.112;16.280;2022-09-13T14:25:56;32.80;99.90
54788;DHT22;59598;48.112;16.280;2022-09-13T14:28:36;31.00;99.90
54788;DHT22;59598;48.112;16.280;2022-09-13T14:31:16;29.60;99.90
54788;DHT22;59598;48.112;16.280;2022-09-13T14:33:50;28.30;99.90
54788;DHT22;59598;48.112;16.280;2022-09-13T14:36:22;28.40;99.90
54788;DHT22;59598;48.112;16.280;2022-09-13T14:38:59;28.80;99.90
54788;DHT22;59598;48.112;16.280;2022-09-13T14:41:40;29.00;99.90
54788;DHT22;59598;48.112;16.280;2022-09-13T14:44:24;28.60;99.90
54788;DHT22;59598;48.112;16.280;2022-09-13T14:49:40;29.00;99.90
54788;DHT22;59598;48.112;16.280;2022-09-13T14:55:10;29.00;99.90
54788;DHT22;59598;48.112;16.280;2022-09-13T14:57:55;28.50;99.90
54788;DHT22;59598;48.112;16.280;2022-09-13T15:03:25;27.80;99.90
54788;DHT22;59598;48.112;16.280;2022-09-13T15:06:01;27.50;99.90
54788;DHT22;59598;48.112;16.280;2022-09-13T15:11:14;25.70;99.90
54788;DHT22;59598;48.112;16.280;2022-09-13T15:14:20;25.00;99.90
54788;DHT22;59598;48.112;16.280;2022-09-13T15:19:38;24.80;99.90
54788;DHT22;59598;48.112;16.280;2022-09-13T15:22:27;24.80;99.90
54788;DHT22;59598;48.112;16.280;2022-09-13T15:25:03;24.80;99.90
54788;DHT22;59598;48.112;16.280;2022-09-13T15:27:50;24.70;99.90
54788;DHT22;59598;48.112;16.280;2022-09-13T15:30:30;24.60;99.90
54788;DHT22;59598;48.112;16.280;2022-09-13T15:35:43;24.40;99.90
54788;DHT22;59598;48.112;16.280;2022-09-13T15:38:25;24.30;99.90
54788;DHT22;59598;48.112;16.280;2022-09-13T15:41:11;24.20;99.90
54788;DHT22;59598;48.112;16.280;2022-09-13T15:43:47;24.10;99.90
54788;DHT22;59598;48.112;16.280;2022-09-13T15:46:18;23.90;99.90
54788;DHT22;59598;48.112;16.280;2022-09-13T15:48:53;23.80;99.90
54788;DHT22;59598;48.112;16.280;2022-09-13T15:51:29;23.70;99.90
54788;DHT22;59598;48.112;16.280;2022-09-13T15:54:01;23.70;99.90
54788;DHT22;59598;48.112;16.280;2022-09-13T15:56:35;23.60;99.90
54788;DHT22;59598;48.112;16.280;2022-09-13T15:59:13;23.50;99.90
54788;DHT22;59598;48.112;16.280;2022-09-13T16:01:47;23.40;99.90
54788;DHT22;59598;48.112;16.280;2022-09-13T16:04:24;23.20;99.90
54788;DHT22;59598;48.112;16.280;2022-09-13T16:06:59;23.10;99.90
54788;DHT22;59598;48.112;16.280;2022-09-13T16:09:33;23.00;99.90
54788;DHT22;59598;48.112;16.280;2022-09-13T16:12:08;22.90;99.90
54788;DHT22;59598;48.112;16.280;2022-09-13T16:14:43;22.70;99.90
54788;DHT22;59598;48.112;16.280;2022-09-13T16:17:23;22.60;99.90
54788;DHT22;59598;48.112;16.280;2022-09-13T16:19:55;22.40;99.90
54788;DHT22;59598;48.112;16.280;2022-09-13T16:22:33;22.40;99.90
54788;DHT22;59598;48.112;16.280;2022-09-13T16:25:05;22.30;99.90
54788;DHT22;59598;48.112;16.280;2022-09-13T16:27:37;22.40;99.90
54788;DHT22;59598;48.112;16.280;2022-09-13T16:30:15;22.50;99.90
54788;DHT22;59598;48.112;16.280;2022-09-13T16:32:50;22.50;99.90
54788;DHT22;59598;48.112;16.280;2022-09-13T16:35:28;22.50;99.90
54788;DHT22;59598;48.112;16.280;2022-09-13T16:38:03;22.50;99.90
54788;DHT22;59598;48.112;16.280;2022-09-13T16:40:42;22.40;99.90
54788;DHT22;59598;48.112;16.280;2022-09-13T16:43:15;22.40;99.90
54788;DHT22;59598;48.112;16.280;2022-09-13T16:45:46;22.40;99.90
54788;DHT22;59598;48.112;16.280;2022-09-13T16:48:20;22.40;99.90
54788;DHT22;59598;48.112;16.280;2022-09-13T16:50:52;22.30;99.90
54788;DHT22;59598;48.112;16.280;2022-09-13T16:53:25;22.40;99.90
54788;DHT22;59598;48.112;16.280;2022-09-13T16:56:13;22.30;99.90
54788;DHT22;59598;48.112;16.280;2022-09-13T16:58:46;22.30;99.90
54788;DHT22;59598;48.112;16.280;2022-09-13T17:01:21;22.20;99.90
54788;DHT22;59598;48.112;16.280;2022-09-13T17:03:54;22.30;99.90
54788;DHT22;59598;48.112;16.280;2022-09-13T17:06:29;22.20;99.90
54788;DHT22;59598;48.112;16.280;2022-09-13T17:09:03;22.10;99.90
54788;DHT22;59598;48.112;16.280;2022-09-13T17:11:37;22.10;99.90
54788;DHT22;59598;48.112;16.280;2022-09-13T17:14:16;22.10;99.90
54788;DHT22;59598;48.112;16.280;2022-09-13T17:16:50;22.00;99.90
54788;DHT22;59598;48.112;16.280;2022-09-13T17:19:30;21.90;99.90
54788;DHT22;59598;48.112;16.280;2022-09-13T17:22:04;21.80;99.90
54788;DHT22;59598;48.112;16.280;2022-09-13T17:24:39;21.70;99.90
54788;DHT22;59598;48.112;16.280;2022-09-13T17:27:13;21.70;99.90
54788;DHT22;59598;48.112;16.280;2022-09-13T17:29:47;21.70;99.90
54788;DHT22;59598;48.112;16.280;2022-09-13T17:32:19;21.60;99.90
54788;DHT22;59598;48.112;16.280;2022-09-13T17:34:50;21.50;99.90
54788;DHT22;59598;48.112;16.280;2022-09-13T17:37:22;21.60;99.90
54788;DHT22;59598;48.112;16.280;2022-09-13T17:39:54;21.60;99.90
54788;DHT22;59598;48.112;16.280;2022-09-13T17:42:30;21.60;99.90
54788;DHT22;59598;48.112;16.280;2022-09-13T17:45:02;21.50;99.90
54788;DHT22;59598;48.112;16.280;2022-09-13T17:47:36;21.50;99.90
54788;DHT22;59598;48.112;16.280;2022-09-13T17:50:10;21.40;99.90
54788;DHT22;59598;48.112;16.280;2022-09-13T17:52:41;21.30;99.90
54788;DHT22;59598;48.112;16.280;2022-09-13T17:55:19;21.20;99.90
54788;DHT22;59598;48.112;16.280;2022-09-13T17:57:55;21.20;99.90
54788;DHT22;59598;48.112;16.280;2022-09-13T18:00:28;21.00;99.90
54788;DHT22;59598;48.112;16.280;2022-09-13T18:03:00;20.90;99.90
54788;DHT22;59598;48.112;16.280;2022-09-13T18:05:32;20.70;99.90
54788;DHT22;59598;48.112;16.280;2022-09-13T18:08:03;20.50;99.90
54788;DHT22;59598;48.112;16.280;2022-09-13T18:10:38;20.40;99.90
54788;DHT22;59598;48.112;16.280;2022-09-13T18:13:14;20.30;99.90
54788;DHT22;59598;48.112;16.280;2022-09-13T18:15:59;20.20;99.90
54788;DHT22;59598;48.112;16.280;2022-09-13T18:18:35;20.00;99.90
54788;DHT22;59598;48.112;16.280;2022-09-13T18:21:09;19.80;99.90
54788;DHT22;59598;48.112;16.280;2022-09-13T18:23:46;19.70;99.90
54788;DHT22;59598;48.112;16.280;2022-09-13T18:26:22;19.60;99.90
54788;DHT22;59598;48.112;16.280;2022-09-13T18:29:01;19.60;99.90
54788;DHT22;59598;48.112;16.280;2022-09-13T18:31:34;19.60;99.90
54788;DHT22;59598;48.112;16.280;2022-09-13T18:34:15;19.50;99.90
54788;DHT22;59598;48.112;16.280;2022-09-13T18:36:47;19.50;99.90
54788;DHT22;59598;48.112;16.280;2022-09-13T18:39:21;19.60;99.90
54788;DHT22;59598;48.112;16.280;2022-09-13T18:41:52;19.60;99.90
54788;DHT22;59598;48.112;16.280;2022-09-13T18:44:24;19.60;99.90
54788;DHT22;59598;48.112;16.280;2022-09-13T18:47:00;19.60;99.90
54788;DHT22;59598;48.112;16.280;2022-09-13T18:49:38;19.50;99.90
54788;DHT22;59598;48.112;16.280;2022-09-13T18:52:11;19.50;99.90
54788;DHT22;59598;48.112;16.280;2022-09-13T18:54:45;19.50;99.90
54788;DHT22;59598;48.112;16.280;2022-09-13T18:57:19;19.40;99.90
54788;DHT22;59598;48.112;16.280;2022-09-13T18:59:51;19.40;99.90
54788;DHT22;59598;48.112;16.280;2022-09-13T19:02:25;19.40;99.90
54788;DHT22;59598;48.112;16.280;2022-09-13T19:04:56;19.40;99.90
54788;DHT22;59598;48.112;16.280;2022-09-13T19:07:32;19.30;99.90
54788;DHT22;59598;48.112;16.280;2022-09-13T19:10:09;19.30;99.90
54788;DHT22;59598;48.112;16.280;2022-09-13T19:12:46;19.30;99.90
54788;DHT22;59598;48.112;16.280;2022-09-13T19:15:20;19.40;99.90
54788;DHT22;59598;48.112;16.280;2022-09-13T19:17:51;19.40;99.90
54788;DHT22;59598;48.112;16.280;2022-09-13T19:20:23;19.40;99.90
54788;DHT22;59598;48.112;16.280;2022-09-13T19:22:58;19.40;99.90
54788;DHT22;59598;48.112;16.280;2022-09-13T19:25:39;19.40;99.90
54788;DHT22;59598;48.112;16.280;2022-09-13T19:28:16;19.40;99.90
54788;DHT22;59598;48.112;16.280;2022-09-13T19:30:53;19.40;99.90
54788;DHT22;59598;48.112;16.280;2022-09-13T19:33:31;19.50;99.90
54788;DHT22;59598;48.112;16.280;2022-09-13T19:36:18;19.50;99.90
54788;DHT22;59598;48.112;16.280;2022-09-13T19:38:54;19.50;99.90
54788;DHT22;59598;48.112;16.280;2022-09-13T19:41:28;19.50;99.90
54788;DHT22;59598;48.112;16.280;2022-09-13T19:44:06;19.40;99.90